Toronto, South Dakota
Current Conditions -  °F | °C
As of 1:54 PM on Wednesday 17 Dec 2014 (Local Time) from KCNB Reporting Station
Clear Clear  
Wind Chill: -13°   Ceiling: Unl
Heat Index: -9°   Visibility: 10mi
Dew Point: -11°   Wind: 6mph
Humidity: 81%   Direction: 360°N
Pressure: 30.31"   Gusts: NA
Location:  44.57°N, 96.64°W
Report Text: KCNB 171954Z AUTO 36005KT 10SM CLR M08/M11 A3031 RMK AO2 T10851112
Loading
Personal Weather Stations






























Interactive Weather Map New forecast layout! Learn more

10-Day Weather Forecast

Advertisements
Track Severe Weather on mobile